createdAt,value
2018-05-21T00:02:01.653Z,35.40
2018-05-21T00:04:29.864Z,35.50
2018-05-21T00:06:58.094Z,35.40
2018-05-21T00:09:26.319Z,35.40
2018-05-21T00:11:54.548Z,35.40
2018-05-21T00:14:22.763Z,35.40
2018-05-21T00:16:51.032Z,35.40
2018-05-21T00:19:19.210Z,35.40
2018-05-21T00:21:47.506Z,35.40
2018-05-21T00:24:15.735Z,35.40
2018-05-21T00:26:43.982Z,35.40
2018-05-21T00:29:12.319Z,35.40
2018-05-21T00:31:40.538Z,35.40
2018-05-21T00:34:08.770Z,35.40
2018-05-21T00:36:36.978Z,35.40
2018-05-21T00:39:06.125Z,35.30
2018-05-21T00:41:34.491Z,35.30
2018-05-21T00:44:02.719Z,35.30
2018-05-21T00:46:30.937Z,35.40
2018-05-21T00:49:00.071Z,35.40
2018-05-21T00:51:28.287Z,35.40
2018-05-21T00:53:56.524Z,35.40
2018-05-21T00:56:24.759Z,35.40
2018-05-21T00:58:52.987Z,35.50
2018-05-21T01:01:21.210Z,35.40
2018-05-21T01:03:49.691Z,35.40
2018-05-21T01:06:17.907Z,35.40
2018-05-21T01:08:46.143Z,35.40
2018-05-21T01:11:14.455Z,35.40
2018-05-21T01:13:42.695Z,35.50
2018-05-21T01:16:11.001Z,35.40
2018-05-21T01:18:39.236Z,35.40
2018-05-21T01:21:07.623Z,35.40
2018-05-21T01:23:35.855Z,35.40
2018-05-21T01:26:04.075Z,35.40
2018-05-21T01:28:32.311Z,35.40
2018-05-21T01:31:00.551Z,35.40
2018-05-21T01:33:28.762Z,35.40
2018-05-21T01:35:56.999Z,35.40
2018-05-21T01:38:25.486Z,35.40
2018-05-21T01:40:53.723Z,35.50
2018-05-21T01:43:21.938Z,35.40
2018-05-21T01:45:50.171Z,35.40
2018-05-21T01:48:18.686Z,35.40
2018-05-21T01:50:46.920Z,35.40
2018-05-21T01:53:15.139Z,35.40
2018-05-21T01:55:43.371Z,35.40
2018-05-21T01:58:11.895Z,35.40
2018-05-21T02:00:40.157Z,35.40
2018-05-21T02:03:08.371Z,35.50
2018-05-21T02:05:36.603Z,35.50
2018-05-21T02:08:04.967Z,35.60
2018-05-21T02:10:33.199Z,35.50
2018-05-21T02:13:01.419Z,35.50
2018-05-21T02:15:29.655Z,35.50
2018-05-21T02:17:57.871Z,35.40
2018-05-21T02:20:26.296Z,35.50
2018-05-21T02:22:54.515Z,35.40
2018-05-21T02:25:22.750Z,35.40
2018-05-21T02:27:50.974Z,35.40
2018-05-21T02:30:20.115Z,35.30
2018-05-21T02:32:48.332Z,35.30
2018-05-21T02:35:16.623Z,35.40
2018-05-21T02:37:44.896Z,35.40
2018-05-21T02:40:13.135Z,35.40
2018-05-21T02:42:41.347Z,35.50
2018-05-21T02:45:09.686Z,35.40
2018-05-21T02:47:37.939Z,35.40
2018-05-21T02:50:06.151Z,35.40
2018-05-21T02:52:34.384Z,35.30
2018-05-21T02:55:02.655Z,35.20
2018-05-21T02:57:31.015Z,35.30
2018-05-21T03:00:00.039Z,35.40
2018-05-21T03:02:28.275Z,35.40
2018-05-21T03:04:56.490Z,35.30
2018-05-21T03:07:24.731Z,35.30
2018-05-21T03:09:52.951Z,35.40
2018-05-21T03:12:21.187Z,35.40
2018-05-21T03:14:49.403Z,35.40
2018-05-21T03:17:17.770Z,35.40
2018-05-21T03:19:46.088Z,35.30
2018-05-21T03:22:14.319Z,35.30
2018-05-21T03:24:42.588Z,35.30
2018-05-21T03:27:10.820Z,35.30
2018-05-21T03:29:39.039Z,36.00
2018-05-21T03:32:07.275Z,35.40
2018-05-21T03:34:35.491Z,35.40
2018-05-21T03:37:03.959Z,35.40
2018-05-21T03:39:32.175Z,35.40
2018-05-21T03:42:00.610Z,35.50
2018-05-21T03:44:28.824Z,35.50
2018-05-21T03:46:57.039Z,35.50
2018-05-21T03:49:25.270Z,35.40
2018-05-21T03:51:53.488Z,35.40
2018-05-21T03:54:21.718Z,35.40
2018-05-21T03:56:49.940Z,35.40
2018-05-21T03:59:29.881Z,35.40
2018-05-21T04:02:09.874Z,35.30
2018-05-21T04:04:38.243Z,35.30
2018-05-21T04:07:06.461Z,35.40
2018-05-21T04:09:34.691Z,35.40
2018-05-21T04:12:02.911Z,35.40
2018-05-21T04:14:31.469Z,35.40
2018-05-21T04:16:59.668Z,35.40
2018-05-21T04:19:27.898Z,35.50
2018-05-21T04:21:56.115Z,35.40
2018-05-21T04:24:24.543Z,35.40
2018-05-21T04:26:52.759Z,35.40
2018-05-21T04:29:20.991Z,35.30
2018-05-21T04:31:49.207Z,35.30
2018-05-21T04:34:17.439Z,35.40
2018-05-21T04:36:45.803Z,35.30
2018-05-21T04:39:14.231Z,35.20
2018-05-21T04:41:42.565Z,35.20
2018-05-21T04:44:10.792Z,35.30
2018-05-21T04:46:39.006Z,35.20
2018-05-21T04:49:07.403Z,35.30
2018-05-21T04:51:35.619Z,35.20
2018-05-21T04:54:03.843Z,35.30
2018-05-21T04:56:32.219Z,35.20
2018-05-21T04:59:00.727Z,35.30
2018-05-21T05:01:28.987Z,35.20
2018-05-21T05:03:57.203Z,35.20
2018-05-21T05:06:25.435Z,35.30
2018-05-21T05:08:53.769Z,35.40
2018-05-21T05:11:22.191Z,35.40
2018-05-21T05:13:50.590Z,35.30
2018-05-21T05:16:18.950Z,35.30
2018-05-21T05:18:47.167Z,35.40
2018-05-21T05:21:15.404Z,35.40
2018-05-21T05:23:43.618Z,35.50
2018-05-21T05:26:11.959Z,35.40
2018-05-21T05:28:40.943Z,35.40
2018-05-21T05:31:09.941Z,35.40
2018-05-21T05:33:39.124Z,35.40
2018-05-21T05:36:07.643Z,35.40
2018-05-21T05:38:35.907Z,35.40
2018-05-21T05:41:04.145Z,35.40
2018-05-21T05:43:32.359Z,35.40
2018-05-21T05:46:00.755Z,35.40
2018-05-21T05:48:29.083Z,35.30
2018-05-21T05:50:57.314Z,35.30
2018-05-21T05:53:25.532Z,35.30
2018-05-21T05:55:53.858Z,35.30
2018-05-21T05:58:22.119Z,35.40
2018-05-21T06:00:50.355Z,35.30
2018-05-21T06:03:18.870Z,35.40
2018-05-21T06:05:47.088Z,35.40
2018-05-21T06:08:15.323Z,35.40
2018-05-21T06:10:43.538Z,35.40
2018-05-21T06:13:11.958Z,35.40
2018-05-21T06:15:40.179Z,35.30
2018-05-21T06:18:08.530Z,35.30
2018-05-21T06:20:36.775Z,35.30
2018-05-21T06:23:05.007Z,35.30
2018-05-21T06:25:33.226Z,35.30
2018-05-21T06:28:01.740Z,35.30
2018-05-21T06:30:30.012Z,35.30
2018-05-21T06:32:58.375Z,35.30
2018-05-21T06:35:26.595Z,35.30
2018-05-21T06:37:54.947Z,35.30
2018-05-21T06:40:23.186Z,35.30
2018-05-21T06:42:51.419Z,35.30
2018-05-21T06:45:19.639Z,35.40
2018-05-21T06:47:48.197Z,35.30
2018-05-21T06:50:16.367Z,35.30
2018-05-21T06:52:44.791Z,35.20
2018-05-21T06:55:13.007Z,35.20
2018-05-21T06:57:41.238Z,35.20
2018-05-21T07:00:09.454Z,35.30
2018-05-21T07:02:37.811Z,35.30
2018-05-21T07:05:06.183Z,35.20
2018-05-21T07:07:34.415Z,35.30
2018-05-21T07:10:02.635Z,35.20
2018-05-21T07:12:30.867Z,35.20
2018-05-21T07:14:59.187Z,35.30
2018-05-21T07:17:27.403Z,35.20
2018-05-21T07:19:55.638Z,35.20
2018-05-21T07:22:23.852Z,35.20
2018-05-21T07:24:52.083Z,35.20
2018-05-21T07:27:20.299Z,35.30
2018-05-21T07:29:48.627Z,35.40
2018-05-21T07:32:16.843Z,35.30
2018-05-21T07:34:45.075Z,35.30
2018-05-21T07:37:13.367Z,35.20
2018-05-21T07:39:41.599Z,35.20
2018-05-21T07:42:10.014Z,35.30
2018-05-21T07:44:38.295Z,35.30
2018-05-21T07:47:06.513Z,35.20
2018-05-21T07:49:34.742Z,35.20
2018-05-21T07:52:03.126Z,35.20
2018-05-21T07:54:31.363Z,35.20
2018-05-21T07:56:59.578Z,35.30
2018-05-21T07:59:27.935Z,35.30
2018-05-21T08:01:56.150Z,35.30
2018-05-21T08:04:24.425Z,35.30
2018-05-21T08:06:52.640Z,35.40
2018-05-21T08:09:20.874Z,35.30
2018-05-21T08:11:49.094Z,35.40
2018-05-21T08:14:17.323Z,35.40
2018-05-21T08:16:45.552Z,35.30
2018-05-21T08:19:13.783Z,35.30
2018-05-21T08:21:41.999Z,35.30
2018-05-21T08:24:10.256Z,35.40
2018-05-21T08:26:38.592Z,35.40
2018-05-21T08:29:06.922Z,35.30
2018-05-21T08:31:35.160Z,35.30
2018-05-21T08:34:03.374Z,35.40
2018-05-21T08:36:31.607Z,35.30
2018-05-21T08:38:59.859Z,35.40
2018-05-21T08:41:28.255Z,35.40
2018-05-21T08:43:56.579Z,35.40
2018-05-21T08:46:24.974Z,35.40
2018-05-21T08:48:53.455Z,35.40
2018-05-21T08:51:21.735Z,35.40
2018-05-21T08:53:50.232Z,35.40
2018-05-21T08:56:18.526Z,35.40
2018-05-21T08:58:46.767Z,35.40
2018-05-21T09:01:14.974Z,35.40
2018-05-21T09:03:43.298Z,35.40
2018-05-21T09:06:11.535Z,35.50
2018-05-21T09:08:39.748Z,35.40
2018-05-21T09:11:07.980Z,35.40
2018-05-21T09:13:36.235Z,35.40
2018-05-21T09:16:04.469Z,35.40
2018-05-21T09:18:32.691Z,35.40
2018-05-21T09:21:00.906Z,35.40
2018-05-21T09:23:29.138Z,35.40
2018-05-21T09:25:57.376Z,35.30
2018-05-21T09:28:25.691Z,35.30
2018-05-21T09:30:54.067Z,35.40
2018-05-21T09:33:22.342Z,35.40
2018-05-21T09:35:50.578Z,35.30
2018-05-21T09:38:18.896Z,35.40
2018-05-21T09:40:47.187Z,35.30
2018-05-21T09:43:15.403Z,35.40
2018-05-21T09:45:44.421Z,35.40
2018-05-21T09:48:12.645Z,35.40
2018-05-21T09:50:40.854Z,35.40
2018-05-21T09:53:09.165Z,35.40
2018-05-21T09:55:37.552Z,35.40
2018-05-21T09:58:05.998Z,35.40
2018-05-21T10:00:34.203Z,35.50
2018-05-21T10:03:02.458Z,35.40
2018-05-21T10:05:30.674Z,36.00
2018-05-21T10:07:58.907Z,35.50
2018-05-21T10:10:27.134Z,35.50
2018-05-21T10:12:55.359Z,35.50
2018-05-21T10:15:23.578Z,35.50
2018-05-21T10:17:51.813Z,35.50
2018-05-21T10:20:20.303Z,35.40
2018-05-21T10:22:48.667Z,35.50
2018-05-21T10:25:16.919Z,35.40
2018-05-21T10:27:45.122Z,35.50
2018-05-21T10:30:13.338Z,35.50
2018-05-21T10:32:41.578Z,35.40
2018-05-21T10:35:09.795Z,35.50
2018-05-21T10:37:38.028Z,35.50
2018-05-21T10:40:06.379Z,35.50
2018-05-21T10:42:34.771Z,35.50
2018-05-21T10:45:02.991Z,35.40
2018-05-21T10:47:31.227Z,35.40
2018-05-21T10:49:59.530Z,35.50
2018-05-21T10:52:27.746Z,35.40
2018-05-21T10:54:55.980Z,35.50
2018-05-21T10:57:24.195Z,35.50
2018-05-21T10:59:52.495Z,35.50
2018-05-21T11:02:20.927Z,35.50
2018-05-21T11:04:49.159Z,35.40
2018-05-21T11:07:17.383Z,35.40
2018-05-21T11:09:45.620Z,35.40
2018-05-21T11:12:13.924Z,35.40
2018-05-21T11:14:42.156Z,35.40
2018-05-21T11:17:10.370Z,35.30
2018-05-21T11:19:38.603Z,35.30
2018-05-21T11:22:06.882Z,35.30
2018-05-21T11:24:35.155Z,35.30
2018-05-21T11:27:03.338Z,35.30
2018-05-21T11:29:31.567Z,35.30
2018-05-21T11:31:59.861Z,35.20
2018-05-21T11:34:28.023Z,35.30
2018-05-21T11:36:56.443Z,35.30
2018-05-21T11:39:25.426Z,35.30
2018-05-21T11:41:54.411Z,35.40
2018-05-21T11:44:23.417Z,35.40
2018-05-21T11:46:52.395Z,35.40
2018-05-21T11:49:22.591Z,35.60
2018-05-21T11:51:50.807Z,35.30
2018-05-21T11:54:19.095Z,35.30
2018-05-21T11:56:47.338Z,35.30
2018-05-21T11:59:15.730Z,35.20
2018-05-21T12:01:44.227Z,35.20
2018-05-21T12:04:12.446Z,35.20
2018-05-21T12:06:40.686Z,35.30
2018-05-21T12:09:08.923Z,35.30
2018-05-21T12:11:37.154Z,35.30
2018-05-21T12:14:05.371Z,35.20
2018-05-21T12:16:33.602Z,35.20
2018-05-21T12:19:01.820Z,35.20
2018-05-21T12:21:30.334Z,35.20
2018-05-21T12:23:58.551Z,35.20
2018-05-21T12:26:26.783Z,35.30
2018-05-21T12:28:55.031Z,35.20
2018-05-21T12:31:23.262Z,35.20
2018-05-21T12:33:51.478Z,35.20
2018-05-21T12:36:19.886Z,35.20
2018-05-21T12:38:48.371Z,35.20
2018-05-21T12:41:16.603Z,35.20
2018-05-21T12:43:45.124Z,35.20
2018-05-21T12:46:13.359Z,35.20
2018-05-21T12:48:41.752Z,35.20
2018-05-21T12:51:09.984Z,35.20
2018-05-21T12:53:38.211Z,35.10
2018-05-21T12:56:06.715Z,35.10
2018-05-21T12:58:34.931Z,35.10
2018-05-21T13:01:03.167Z,35.20
2018-05-21T13:03:31.539Z,35.20
2018-05-21T13:05:59.773Z,35.10
2018-05-21T13:08:27.986Z,35.20
2018-05-21T13:10:56.203Z,35.20
2018-05-21T13:13:27.155Z,35.10
2018-05-21T13:15:55.371Z,35.10
2018-05-21T13:18:23.607Z,35.10
2018-05-21T13:20:51.823Z,35.20
2018-05-21T13:23:20.108Z,35.20
2018-05-21T13:25:48.347Z,35.10
2018-05-21T13:28:16.738Z,35.00
2018-05-21T13:30:45.240Z,35.10
2018-05-21T13:33:13.471Z,35.00
2018-05-21T13:35:41.686Z,35.10
2018-05-21T13:38:09.925Z,35.10
2018-05-21T13:40:38.143Z,35.00
2018-05-21T13:43:06.377Z,35.10
2018-05-21T13:45:34.710Z,35.00
2018-05-21T13:48:02.967Z,35.00
2018-05-21T13:50:31.215Z,35.00
2018-05-21T13:52:59.612Z,35.00
2018-05-21T13:55:27.827Z,35.00
2018-05-21T13:57:56.059Z,35.00
2018-05-21T14:00:24.278Z,35.00
2018-05-21T14:02:52.511Z,35.00
2018-05-21T14:05:20.907Z,35.10
2018-05-21T14:07:49.139Z,35.10
2018-05-21T14:10:18.234Z,35.10
2018-05-21T14:12:46.466Z,35.10
2018-05-21T14:15:14.684Z,35.10
2018-05-21T14:17:42.915Z,35.00
2018-05-21T14:20:11.139Z,35.00
2018-05-21T14:22:39.373Z,35.00
2018-05-21T14:25:07.680Z,35.00
2018-05-21T14:27:35.970Z,35.00
2018-05-21T14:30:04.478Z,35.00
2018-05-21T14:32:32.859Z,35.00
2018-05-21T14:35:01.119Z,35.00
2018-05-21T14:37:29.339Z,35.10
2018-05-21T14:39:57.571Z,35.10
2018-05-21T14:42:25.930Z,35.00
2018-05-21T14:44:54.327Z,35.00
2018-05-21T14:47:22.791Z,35.00
2018-05-21T14:49:51.037Z,35.00
2018-05-21T14:52:19.256Z,34.90
2018-05-21T16:16:45.998Z,35.00
2018-05-21T16:19:14.222Z,35.00
2018-05-21T16:21:42.460Z,34.90
2018-05-21T16:24:10.675Z,34.80
2018-05-21T16:26:38.912Z,34.70
2018-05-21T16:29:07.114Z,34.70
2018-05-21T16:31:35.454Z,34.70
2018-05-21T16:34:03.675Z,34.70
2018-05-21T16:36:31.911Z,34.60
2018-05-21T16:39:00.131Z,34.60
2018-05-21T16:41:28.430Z,34.50
2018-05-21T16:43:56.583Z,34.50
2018-05-21T16:46:24.818Z,34.50
2018-05-21T16:48:53.035Z,34.50
2018-05-21T16:51:21.260Z,34.50
2018-05-21T16:53:49.850Z,34.60
2018-05-21T16:56:18.141Z,34.50
2018-05-21T16:58:47.139Z,34.60
2018-05-21T17:01:16.122Z,34.50
2018-05-21T17:03:44.515Z,34.40
2018-05-21T17:06:13.524Z,34.50
2018-05-21T17:08:41.742Z,34.50
2018-05-21T17:11:09.966Z,34.40
2018-05-21T17:13:38.955Z,34.40
2018-05-21T17:16:07.180Z,34.40
2018-05-21T17:18:35.398Z,34.40
2018-05-21T17:21:04.574Z,34.40
2018-05-21T17:23:32.807Z,34.30
2018-05-21T17:26:01.022Z,34.30
2018-05-21T17:28:29.539Z,34.30
2018-05-21T17:30:57.780Z,34.30
2018-05-21T17:33:26.002Z,34.20
2018-05-21T17:35:54.330Z,34.20
2018-05-21T17:38:22.715Z,34.20
2018-05-21T17:40:50.933Z,34.20
2018-05-21T17:43:19.167Z,34.20
2018-05-21T17:45:47.383Z,34.20
2018-05-21T17:48:15.614Z,34.20
2018-05-21T17:50:44.259Z,34.20
2018-05-21T17:53:12.493Z,34.10
2018-05-21T17:55:40.710Z,34.10
2018-05-21T17:58:09.040Z,34.20
2018-05-21T18:00:37.402Z,34.10
2018-05-21T18:03:05.924Z,34.10
2018-05-21T18:05:34.271Z,34.10
2018-05-21T18:08:03.384Z,34.30
2018-05-21T18:10:31.654Z,34.10
2018-05-21T18:12:59.891Z,34.10
2018-05-21T18:15:28.127Z,34.10
2018-05-21T18:17:56.491Z,34.00
2018-05-21T18:20:24.870Z,34.10
2018-05-21T18:22:53.090Z,34.20
2018-05-21T18:25:21.313Z,34.20
2018-05-21T18:27:49.539Z,34.20
2018-05-21T18:30:17.966Z,34.30
2018-05-21T18:32:46.186Z,34.30
2018-05-21T18:35:14.408Z,34.20
2018-05-21T18:37:42.632Z,34.20
2018-05-21T18:40:10.858Z,34.30
2018-05-21T18:42:39.343Z,34.30
2018-05-21T18:45:07.515Z,34.30
2018-05-21T18:47:35.779Z,34.20
2018-05-21T18:50:03.963Z,34.20
2018-05-21T18:52:32.179Z,34.20
2018-05-21T18:55:00.411Z,34.20
2018-05-21T18:57:28.632Z,34.20
2018-05-21T18:59:57.059Z,34.20
2018-05-21T19:02:26.384Z,34.20
2018-05-21T19:04:54.633Z,34.10
2018-05-21T19:07:22.907Z,34.10
2018-05-21T19:09:51.140Z,34.20
2018-05-21T19:12:20.762Z,34.20
2018-05-21T19:14:48.999Z,34.30
2018-05-21T19:17:17.215Z,34.40
2018-05-21T19:19:45.510Z,34.50
2018-05-21T19:22:13.743Z,34.50
2018-05-21T19:24:41.999Z,34.50
2018-05-21T19:27:10.479Z,34.60
2018-05-21T19:29:38.694Z,34.60
2018-05-21T19:32:06.931Z,34.60
2018-05-21T19:34:35.171Z,34.50
2018-05-21T19:37:03.687Z,34.50
2018-05-21T19:39:31.903Z,34.50
2018-05-21T19:42:00.322Z,34.60
2018-05-21T19:44:28.542Z,35.10
2018-05-21T19:46:56.775Z,34.70
2018-05-21T19:49:24.990Z,34.60
2018-05-21T19:51:53.318Z,35.20
2018-05-21T19:54:22.295Z,34.80
2018-05-21T19:56:50.595Z,34.70
2018-05-21T19:59:18.811Z,34.70
2018-05-21T20:01:47.108Z,34.70
2018-05-21T20:04:15.404Z,34.70
2018-05-21T20:06:43.798Z,34.80
2018-05-21T20:09:12.296Z,34.70
2018-05-21T20:11:40.531Z,34.60
2018-05-21T20:14:08.918Z,34.60
2018-05-21T20:16:37.150Z,34.70
2018-05-21T20:19:05.443Z,34.70
2018-05-21T20:21:33.676Z,34.60
2018-05-21T20:24:01.895Z,34.70
2018-05-21T20:26:30.148Z,34.60
2018-05-21T20:28:58.362Z,34.60
2018-05-21T20:31:26.628Z,34.60
2018-05-21T20:33:54.850Z,34.60
2018-05-21T20:36:23.067Z,34.60
2018-05-21T20:38:51.299Z,34.60
2018-05-21T20:41:19.580Z,34.60
2018-05-21T20:43:47.821Z,34.70
2018-05-21T20:46:16.035Z,34.70
2018-05-21T20:48:44.346Z,34.70
2018-05-21T20:51:12.560Z,34.70
2018-05-21T20:53:41.563Z,34.80
2018-05-21T20:56:11.451Z,34.80
2018-05-21T20:58:39.748Z,34.70
2018-05-21T21:01:07.964Z,34.70
2018-05-21T21:03:36.195Z,34.70
2018-05-21T21:06:04.595Z,34.70
2018-05-21T21:08:32.955Z,34.80
2018-05-21T21:11:01.185Z,34.80
2018-05-21T21:13:29.514Z,34.90
2018-05-21T21:15:58.499Z,34.90
2018-05-21T21:18:27.815Z,34.90
2018-05-21T21:20:56.196Z,34.90
2018-05-21T21:23:24.512Z,34.90
2018-05-21T21:25:52.955Z,34.80
2018-05-21T21:28:21.194Z,34.80
2018-05-21T21:30:49.407Z,35.00
2018-05-21T21:33:17.642Z,34.80
2018-05-21T21:35:45.859Z,34.90
2018-05-21T21:38:14.233Z,34.90
2018-05-21T21:40:42.450Z,35.00
2018-05-21T21:43:10.664Z,34.90
2018-05-21T21:45:39.664Z,35.00
2018-05-21T21:48:08.662Z,35.00
2018-05-21T21:50:36.890Z,34.90
2018-05-21T21:53:05.108Z,35.00
2018-05-21T21:55:33.339Z,34.90
2018-05-21T21:58:01.560Z,35.00
2018-05-21T22:00:29.790Z,35.00
2018-05-21T22:02:58.191Z,35.00
2018-05-21T22:05:26.583Z,35.00
2018-05-21T22:07:55.658Z,35.10
2018-05-21T22:10:23.891Z,35.00
2018-05-21T22:12:52.106Z,35.00
2018-05-21T22:15:20.339Z,35.00
2018-05-21T22:17:48.557Z,35.00
2018-05-21T22:20:16.963Z,35.00
2018-05-21T22:22:45.968Z,35.00
2018-05-21T22:25:14.201Z,35.00
2018-05-21T22:27:42.583Z,35.00
2018-05-21T22:30:10.818Z,35.00
2018-05-21T22:32:39.035Z,35.00
2018-05-21T22:35:07.427Z,35.00
2018-05-21T22:37:35.834Z,35.00
2018-05-21T22:40:04.190Z,35.00
2018-05-21T22:42:32.403Z,34.90
2018-05-21T22:45:00.634Z,35.00
2018-05-21T22:47:29.055Z,35.00
2018-05-21T22:49:57.294Z,35.00
2018-05-21T22:52:25.503Z,35.00
2018-05-21T22:54:53.736Z,35.00
2018-05-21T22:57:21.950Z,35.00
2018-05-21T22:59:50.187Z,35.10
2018-05-21T23:02:18.398Z,35.20
2018-05-21T23:04:46.748Z,35.30
2018-05-21T23:07:15.238Z,35.20
2018-05-21T23:09:43.518Z,35.20
2018-05-21T23:12:11.752Z,35.10
2018-05-21T23:14:39.968Z,35.10
2018-05-21T23:17:09.023Z,35.10
2018-05-21T23:19:37.235Z,35.10
2018-05-21T23:22:05.468Z,35.10
2018-05-21T23:24:33.890Z,35.10
2018-05-21T23:27:02.267Z,35.10
2018-05-21T23:29:30.646Z,35.10
2018-05-21T23:31:58.883Z,35.20
2018-05-21T23:34:27.403Z,35.10
2018-05-21T23:36:55.694Z,35.20
2018-05-21T23:39:23.911Z,35.20
2018-05-21T23:41:52.143Z,35.20
2018-05-21T23:44:20.470Z,35.20
2018-05-21T23:46:48.703Z,35.20
2018-05-21T23:49:16.923Z,35.20
2018-05-21T23:51:45.158Z,35.20
2018-05-21T23:54:13.520Z,35.20
2018-05-21T23:56:41.767Z,35.20
2018-05-21T23:59:09.982Z,35.20
